Time;durP1;ratioP1;P1;durP2;ratioP2;P2;SDS_P1;SDS_P2;PMS_P1;PMS_P2;Temp;Humidity;BMP_temperature;BMP_pressure;BME280_temperature;BME280_humidity;BME280_pressure;Samples;Min_cycle;Max_cycle;Signal;HPM_P1;HPM_P2
2020/12/09 00:00:05;;;;;;;15.55;8.75;;;;;;;5.90;48.46;100342.69;5031359;28;20041;-66
2020/12/09 00:02:32;;;;;;;14.18;7.70;;;;;;;5.89;48.44;100351.81;5032010;28;20049;-66
2020/12/09 00:05:00;;;;;;;14.40;8.07;;;;;;;5.88;48.42;100350.09;5031470;28;20048;-66
2020/12/09 00:07:27;;;;;;;17.50;8.98;;;;;;;5.87;48.34;100345.63;5031823;28;20053;-66
2020/12/09 00:09:55;;;;;;;14.57;8.80;;;;;;;5.87;48.38;100348.34;5031179;28;20052;-66
2020/12/09 00:12:23;;;;;;;13.13;8.30;;;;;;;5.85;48.38;100344.88;5032037;28;20055;-66
2020/12/09 00:14:52;;;;;;;14.88;8.80;;;;;;;5.85;48.43;100358.44;5031640;28;20068;-66
2020/12/09 00:17:19;;;;;;;13.32;7.65;;;;;;;5.83;48.38;100352.28;5032173;28;20166;-66
2020/12/09 00:19:47;;;;;;;11.95;7.50;;;;;;;5.83;48.46;100366.72;5030736;28;20511;-67
2020/12/09 00:22:15;;;;;;;11.07;6.95;;;;;;;5.82;48.40;100365.00;5031398;28;20558;-66
2020/12/09 00:24:42;;;;;;;14.93;8.60;;;;;;;5.83;48.71;100369.44;5031892;28;20111;-66
2020/12/09 00:27:10;;;;;;;13.45;8.38;;;;;;;5.81;48.50;100376.81;5030298;28;20111;-66
2020/12/09 00:29:37;;;;;;;15.93;9.45;;;;;;;5.81;48.27;100368.69;5031111;28;20040;-66
2020/12/09 00:32:05;;;;;;;15.57;8.95;;;;;;;5.81;48.49;100365.09;5032261;28;20475;-66
2020/12/09 00:34:33;;;;;;;13.93;7.97;;;;;;;5.80;48.59;100358.81;5031716;28;20041;-66
2020/12/09 00:37:00;;;;;;;13.00;8.23;;;;;;;5.80;48.37;100360.66;5030283;28;20042;-66
2020/12/09 00:39:28;;;;;;;14.80;8.52;;;;;;;5.79;48.42;100367.91;5031043;28;20080;-66
2020/12/09 00:41:55;;;;;;;15.70;9.00;;;;;;;5.79;48.30;100369.75;5031287;28;20443;-66
2020/12/09 00:44:22;;;;;;;14.63;8.32;;;;;;;5.78;48.40;100371.59;5034849;28;20073;-66
2020/12/09 00:46:50;;;;;;;14.77;8.70;;;;;;;5.78;48.65;100374.31;5034031;28;20033;-66
2020/12/09 00:49:18;;;;;;;12.40;7.22;;;;;;;5.79;48.57;100376.06;5042368;28;20092;-66
2020/12/09 00:51:45;;;;;;;13.68;8.05;;;;;;;5.78;48.22;100371.59;5050895;28;20069;-66
2020/12/09 00:54:13;;;;;;;14.25;8.75;;;;;;;5.78;48.52;100373.44;5051055;28;20049;-66
2020/12/09 00:56:43;;;;;;;16.02;9.10;;;;;;;5.79;48.47;100383.34;5031082;28;20440;-66
2020/12/09 00:59:13;;;;;;;;;;;;;;;5.54;48.96;100378.84;5014163;28;20053;-67
2020/12/09 01:01:41;;;;;;;15.30;8.65;;;;;;;5.72;48.61;100373.91;5048779;28;20307;-67
2020/12/09 01:04:14;;;;;;;15.73;8.75;;;;;;;5.76;48.44;100383.59;5043812;28;20478;-66
2020/12/09 01:06:42;;;;;;;13.40;7.80;;;;;;;5.77;48.46;100382.56;5035134;28;20037;-67
2020/12/09 01:09:09;;;;;;;15.30;9.00;;;;;;;5.76;48.45;100380.88;5034609;28;20046;-67
2020/12/09 01:11:37;;;;;;;14.73;9.07;;;;;;;5.76;48.51;100389.84;5035004;28;20100;-66
2020/12/09 01:14:04;;;;;;;14.70;8.65;;;;;;;5.74;48.40;100385.53;5017402;28;20064;-66
2020/12/09 01:16:32;;;;;;;14.23;8.25;;;;;;;5.74;48.32;100386.41;5035174;28;20087;-67
2020/12/09 01:18:59;;;;;;;14.55;7.97;;;;;;;5.75;48.55;100387.28;5034480;28;20400;-67
2020/12/09 01:21:28;;;;;;;15.75;9.38;;;;;;;5.75;48.46;100387.28;5034785;28;20128;-67
2020/12/09 01:23:56;;;;;;;16.52;9.73;;;;;;;5.75;48.46;100388.13;5035179;28;20049;-67
2020/12/09 01:26:23;;;;;;;13.85;8.27;;;;;;;5.73;48.47;100386.50;5016925;28;20050;-67
2020/12/09 01:28:50;;;;;;;15.40;9.35;;;;;;;5.72;48.29;100396.50;5034489;28;20041;-66
2020/12/09 01:31:20;;;;;;;14.88;8.25;;;;;;;5.73;48.53;100398.22;5034475;28;20041;-66
2020/12/09 01:33:47;;;;;;;16.35;9.52;;;;;;;5.72;48.44;100403.75;5034782;28;20123;-66
2020/12/09 01:36:20;;;;;;;15.57;9.20;;;;;;;5.73;48.53;100406.38;5034144;28;20041;-66
2020/12/09 01:38:49;;;;;;;17.45;10.05;;;;;;;5.72;48.53;100412.78;5034081;28;20052;-66
2020/12/09 01:41:23;;;;;;;15.88;9.40;;;;;;;5.71;48.60;100407.47;5034740;28;20255;-66
2020/12/09 01:43:52;;;;;;;15.02;8.88;;;;;;;5.71;48.36;100407.47;5034585;28;20048;-66
2020/12/09 01:46:27;;;;;;;17.60;9.98;;;;;;;5.73;48.41;100410.94;5034563;28;20057;-66
2020/12/09 01:48:55;;;;;;;15.80;9.23;;;;;;;5.71;48.34;100415.59;5033794;28;20037;-67
2020/12/09 01:51:24;;;;;;;17.10;9.85;;;;;;;5.72;48.40;100414.63;5034112;28;20518;-66
2020/12/09 01:53:52;;;;;;;18.08;10.25;;;;;;;5.70;48.15;100419.28;5033396;28;20042;-66
2020/12/09 01:56:21;;;;;;;16.75;10.13;;;;;;;5.70;48.51;100417.44;5034222;28;20234;-66
2020/12/09 01:58:49;;;;;;;18.55;10.45;;;;;;;5.69;48.10;100421.13;5033488;28;20041;-66
2020/12/09 02:01:17;;;;;;;15.02;9.00;;;;;;;5.66;48.43;100418.66;5013211;28;20096;-66
2020/12/09 02:03:46;;;;;;;18.25;10.40;;;;;;;5.68;48.36;100419.41;5020198;28;20052;-66
2020/12/09 02:06:14;;;;;;;16.30;9.75;;;;;;;5.67;47.97;100425.81;5034068;28;20049;-66
2020/12/09 02:08:42;;;;;;;17.92;10.70;;;;;;;5.66;48.45;100423.22;5033467;28;20041;-66
2020/12/09 02:11:09;;;;;;;17.50;9.73;;;;;;;5.65;48.49;100437.75;5015994;28;20060;-66
2020/12/09 02:13:41;;;;;;;16.85;9.15;;;;;;;5.67;48.52;100438.53;5034070;28;20045;-66
2020/12/09 02:16:09;;;;;;;14.68;9.15;;;;;;;5.64;48.46;100439.59;5034089;28;20050;-66
2020/12/09 02:18:37;;;;;;;15.48;9.75;;;;;;;5.63;48.46;100432.44;5033541;28;20049;-66
2020/12/09 02:21:04;;;;;;;18.40;10.30;;;;;;;5.61;48.36;100434.38;5033286;28;20504;-66
2020/12/09 02:23:32;;;;;;;15.40;9.15;;;;;;;5.63;48.35;100450.56;5034092;28;20087;-66
2020/12/09 02:25:59;;;;;;;14.45;8.85;;;;;;;5.60;48.30;100446.22;5033909;28;20060;-66
2020/12/09 02:28:28;;;;;;;20.23;10.10;;;;;;;5.60;48.43;100451.66;5016067;28;20377;-66
2020/12/09 02:30:57;;;;;;;14.93;9.18;;;;;;;5.60;48.60;100440.78;5033171;28;20407;-66
2020/12/09 02:33:24;;;;;;;17.42;9.88;;;;;;;5.60;48.50;100451.66;5033648;28;20041;-66
2020/12/09 02:35:51;;;;;;;16.95;9.82;;;;;;;5.59;48.53;100447.22;5033394;28;20072;-65
2020/12/09 02:38:20;;;;;;;16.30;9.60;;;;;;;5.59;48.38;100442.63;5033479;28;20092;-66
2020/12/09 02:40:48;;;;;;;17.70;10.63;;;;;;;5.59;48.49;100450.78;5032689;28;20416;-65
2020/12/09 02:43:16;;;;;;;15.82;9.75;;;;;;;5.59;48.29;100447.22;5032488;28;20038;-67
2020/12/09 02:45:43;;;;;;;17.45;9.45;;;;;;;5.58;48.44;100446.34;5031750;28;20151;-67
2020/12/09 02:48:10;;;;;;;16.90;9.80;;;;;;;5.57;48.28;100447.34;5035071;28;20045;-65
2020/12/09 02:50:37;;;;;;;17.05;10.45;;;;;;;5.57;48.24;100441.03;5032827;28;20343;-65
2020/12/09 02:53:04;;;;;;;15.38;9.05;;;;;;;5.56;48.09;100439.28;5033137;28;20033;-65
2020/12/09 02:55:31;;;;;;;16.77;9.23;;;;;;;5.56;48.34;100450.16;5031956;28;20045;-66
2020/12/09 02:58:00;;;;;;;16.30;9.15;;;;;;;5.55;48.44;100443.84;5032206;28;20412;-66
2020/12/09 03:00:28;;;;;;;18.15;10.35;;;;;;;5.55;48.29;100446.56;5032310;28;20045;-66
2020/12/09 03:02:55;;;;;;;16.60;9.50;;;;;;;5.54;48.55;100446.66;5014831;28;20046;-65
2020/12/09 03:05:23;;;;;;;16.38;9.95;;;;;;;5.53;48.72;100442.22;4998568;28;20049;-65
2020/12/09 03:07:50;;;;;;;20.88;11.55;;;;;;;5.53;48.47;100442.22;5032584;28;20531;-65
2020/12/09 03:10:20;;;;;;;17.63;11.05;;;;;;;5.53;48.35;100445.81;5024686;28;20045;-66
2020/12/09 03:12:48;;;;;;;17.10;10.13;;;;;;;5.53;48.27;100447.63;5032653;28;20052;-66
2020/12/09 03:15:16;;;;;;;18.70;10.85;;;;;;;5.53;48.36;100453.06;5032530;28;20123;-66
2020/12/09 03:17:44;;;;;;;17.65;10.85;;;;;;;5.52;48.19;100451.34;5037161;28;20542;-66
2020/12/09 03:20:11;;;;;;;20.45;11.38;;;;;;;5.51;48.30;100450.47;5031629;28;20056;-66
2020/12/09 03:22:38;;;;;;;20.80;12.80;;;;;;;5.50;48.30;100454.19;5032332;28;20073;-66
2020/12/09 03:25:05;;;;;;;20.88;12.02;;;;;;;5.50;48.20;100456.03;5026954;28;20132;-66
2020/12/09 03:27:33;;;;;;;18.15;10.68;;;;;;;5.46;48.04;100452.63;5032213;28;20060;-66
2020/12/09 03:30:01;;;;;;;17.15;10.82;;;;;;;5.47;48.25;100457.09;5031549;28;20080;-66
2020/12/09 03:32:29;;;;;;;16.90;10.40;;;;;;;5.47;48.10;100453.47;5032170;28;20116;-66
2020/12/09 03:34:56;;;;;;;19.05;11.35;;;;;;;5.47;47.99;100454.38;5031975;28;20064;-66
2020/12/09 03:37:24;;;;;;;21.17;12.88;;;;;;;5.44;48.17;100451.84;5031889;28;20492;-66
2020/12/09 03:39:51;;;;;;;19.75;11.40;;;;;;;5.45;48.32;100458.16;5031230;28;20095;-65
2020/12/09 03:42:18;;;;;;;19.88;12.00;;;;;;;5.44;48.32;100465.41;5032363;28;20072;-66
2020/12/09 03:44:46;;;;;;;21.30;12.40;;;;;;;5.43;48.60;100460.13;5037984;28;20036;-66
2020/12/09 03:47:13;;;;;;;17.73;11.00;;;;;;;5.42;48.46;100467.38;5033418;28;20046;-66
2020/12/09 03:49:41;;;;;;;18.08;10.80;;;;;;;5.42;48.58;100472.81;5031181;28;20033;-66
2020/12/09 03:52:09;;;;;;;17.27;10.90;;;;;;;5.41;48.03;100462.06;5031973;28;20045;-66
2020/12/09 03:54:36;;;;;;;18.13;10.98;;;;;;;5.42;48.54;100466.53;5032091;28;20473;-66
2020/12/09 03:57:04;;;;;;;18.63;11.65;;;;;;;5.40;48.34;100469.34;4997410;28;20060;-66
2020/12/09 03:59:32;;;;;;;18.70;10.68;;;;;;;5.40;48.38;100473.88;5030925;28;20045;-66
2020/12/09 04:01:59;;;;;;;19.42;11.52;;;;;;;5.39;48.44;100466.72;5031278;28;20033;-66
2020/12/09 04:04:27;;;;;;;17.02;9.95;;;;;;;5.39;48.49;100462.16;5032235;28;20037;-66
2020/12/09 04:06:55;;;;;;;18.42;10.73;;;;;;;5.41;48.44;100470.22;5031879;28;20041;-67
2020/12/09 04:09:23;;;;;;;19.08;11.27;;;;;;;5.40;48.49;100468.47;5031767;28;20552;-66
2020/12/09 04:11:50;;;;;;;18.67;11.35;;;;;;;5.40;48.59;100474.75;5031861;28;20049;-66
2020/12/09 04:14:20;;;;;;;18.35;11.43;;;;;;;5.40;48.26;100474.75;5019900;28;20056;-66
2020/12/09 04:16:50;;;;;;;18.30;10.52;;;;;;;5.40;48.20;100484.75;5013878;28;20045;-66
2020/12/09 04:19:37;;;;;;;17.92;11.00;;;;;;;5.39;48.80;100483.00;5028923;28;20325;-66
2020/12/09 04:22:25;;;;;;;20.35;11.93;;;;;;;5.39;48.53;100481.16;5029389;28;20132;-66
2020/12/09 04:24:58;;;;;;;17.13;10.32;;;;;;;5.39;48.50;100494.72;5039810;28;20481;-67
2020/12/09 04:27:45;;;;;;;15.57;9.23;;;;;;;5.37;48.59;100485.81;5029258;28;20049;-66
2020/12/09 04:30:32;;;;;;;18.25;10.95;;;;;;;5.37;48.27;100504.81;5028910;28;20057;-66
2020/12/09 04:33:27;;;;;;;17.45;10.57;;;;;;;5.39;48.38;100496.56;5029980;28;20045;-66
2020/12/09 04:36:13;;;;;;;18.40;10.50;;;;;;;5.34;48.17;100498.75;5014035;28;20476;-65
2020/12/09 04:39:01;;;;;;;22.55;11.90;;;;;;;5.32;48.09;100501.56;5028601;28;20107;-66
2020/12/09 04:41:48;;;;;;;18.95;11.32;;;;;;;5.31;48.05;100504.38;5029807;28;20049;-66
2020/12/09 04:44:35;;;;;;;18.40;10.27;;;;;;;5.28;48.40;100497.31;5014573;28;20053;-66
2020/12/09 04:47:26;;;;;;;18.83;10.82;;;;;;;5.29;48.33;100500.88;5026884;28;20048;-66
2020/12/09 04:50:14;;;;;;;19.77;12.30;;;;;;;5.27;48.16;100497.41;5031392;28;20512;-66
2020/12/09 04:53:07;;;;;;;22.85;11.75;;;;;;;5.26;47.93;100491.16;5031813;28;20053;-66
2020/12/09 04:55:48;;;;;;;19.95;11.45;;;;;;;5.26;48.37;100493.84;5032274;28;20042;-66
2020/12/09 04:58:20;;;;;;;21.08;13.02;;;;;;;5.24;48.09;100493.09;5032362;28;20128;-66
2020/12/09 05:01:04;;;;;;;20.35;11.23;;;;;;;5.26;48.05;100502.00;5013478;28;20045;-66
2020/12/09 05:03:44;;;;;;;20.45;11.88;;;;;;;5.21;48.26;100493.28;5030840;28;20045;-66
2020/12/09 05:06:32;;;;;;;19.45;10.88;;;;;;;5.19;48.20;100493.41;5031088;28;20045;-66
2020/12/09 05:09:19;;;;;;;22.13;11.68;;;;;;;5.19;48.35;100500.66;5028674;28;20065;-66
2020/12/09 05:12:05;;;;;;;19.15;10.95;;;;;;;5.19;48.34;100492.53;5031058;28;20053;-66
2020/12/09 05:14:53;;;;;;;23.05;12.70;;;;;;;5.18;48.20;100507.09;5031958;28;20045;-66
2020/12/09 05:17:54;;;;;;;19.75;11.90;;;;;;;5.19;48.04;100506.94;5031500;28;20053;-66
2020/12/09 05:20:34;;;;;;;24.70;13.35;;;;;;;5.16;48.07;100518.03;5025723;28;20037;-66
2020/12/09 05:23:25;;;;;;;22.52;12.73;;;;;;;5.16;48.14;100519.88;5031439;28;20477;-67
2020/12/09 05:26:18;;;;;;;22.23;11.98;;;;;;;5.14;47.84;100517.25;5009925;28;20137;-67
2020/12/09 05:29:09;;;;;;;24.17;13.80;;;;;;;5.10;47.84;100517.59;5015703;28;20148;-66
2020/12/09 05:32:01;;;;;;;23.25;12.23;;;;;;;5.10;47.95;100518.44;5033437;28;20068;-67
2020/12/09 05:34:49;;;;;;;22.83;12.60;;;;;;;5.07;47.84;100523.22;5031569;28;20069;-66
2020/12/09 05:37:36;;;;;;;24.80;13.40;;;;;;;5.05;47.92;100528.75;5032486;28;20050;-67
2020/12/09 05:40:29;;;;;;;26.15;13.38;;;;;;;5.06;47.77;100527.75;5034482;28;20381;-67
2020/12/09 05:43:18;;;;;;;25.55;13.98;;;;;;;5.00;48.19;100536.31;5015511;28;20108;-67
2020/12/09 05:46:09;;;;;;;24.25;13.10;;;;;;;5.03;48.08;100540.66;5031795;28;20073;-66
2020/12/09 05:48:57;;;;;;;20.58;11.75;;;;;;;4.99;47.97;100540.00;5034492;28;20170;-67
2020/12/09 05:51:44;;;;;;;22.63;12.68;;;;;;;4.98;47.92;100545.53;5021315;28;20045;-66
2020/12/09 05:54:32;;;;;;;25.23;13.77;;;;;;;4.96;47.92;100553.75;5029783;28;20045;-66
2020/12/09 05:57:24;;;;;;;25.27;13.43;;;;;;;4.98;48.31;100556.38;5035029;28;20061;-66
2020/12/09 06:00:12;;;;;;;24.50;12.57;;;;;;;4.96;48.20;100561.03;5033642;28;20546;-67
2020/12/09 06:03:16;;;;;;;26.23;13.98;;;;;;;4.96;47.98;100561.03;5033465;28;20041;-67
2020/12/09 06:06:15;;;;;;;27.27;14.55;;;;;;;4.95;47.78;100567.41;5034815;28;20045;-67
2020/12/09 06:09:02;;;;;;;22.00;12.23;;;;;;;4.91;47.94;100569.47;5047098;28;20072;-66
2020/12/09 06:11:49;;;;;;;25.23;13.43;;;;;;;4.91;47.74;100560.47;5033083;28;20115;-66
2020/12/09 06:14:36;;;;;;;21.75;12.20;;;;;;;4.91;47.79;100574.91;5034800;28;20045;-66
2020/12/09 06:17:23;;;;;;;22.35;12.32;;;;;;;4.90;47.85;100566.88;5034086;28;20049;-66
2020/12/09 06:19:52;;;;;;;25.42;13.50;;;;;;;4.91;47.95;100571.31;5033716;28;20037;-67
2020/12/09 06:22:33;;;;;;;25.20;13.95;;;;;;;4.89;47.88;100567.84;5033855;28;20041;-67
2020/12/09 06:25:10;;;;;;;23.55;12.55;;;;;;;4.86;48.00;100560.75;5032930;28;20499;-67
2020/12/09 06:27:41;;;;;;;22.45;12.27;;;;;;;4.86;47.67;100566.19;5044780;28;20476;-67
2020/12/09 06:30:10;;;;;;;20.70;10.88;;;;;;;4.84;47.98;100560.91;5028768;28;20073;-66
2020/12/09 06:32:56;;;;;;;20.75;11.18;;;;;;;4.85;47.91;100567.19;5016475;28;20053;-66
2020/12/09 06:35:44;;;;;;;20.85;11.55;;;;;;;4.83;48.10;100572.69;5031236;28;20547;-66
2020/12/09 06:38:32;;;;;;;21.60;12.07;;;;;;;4.82;47.81;100584.50;5033983;28;20661;-66
2020/12/09 06:41:19;;;;;;;23.67;13.18;;;;;;;4.82;48.00;100587.22;5032618;28;20121;-66
2020/12/09 06:44:08;;;;;;;22.45;11.95;;;;;;;4.82;48.07;100587.22;5033452;28;20065;-66
2020/12/09 06:46:56;;;;;;;20.40;11.90;;;;;;;4.81;48.08;100590.03;5030799;28;20081;-66
2020/12/09 06:49:45;;;;;;;22.08;11.98;;;;;;;4.83;47.92;100585.38;5018637;28;20045;-66
2020/12/09 06:52:36;;;;;;;21.70;12.23;;;;;;;4.82;48.10;100595.34;5029681;28;20057;-66
2020/12/09 06:55:23;;;;;;;23.98;13.02;;;;;;;4.81;48.02;100599.03;5030838;28;20398;-66
2020/12/09 06:58:21;;;;;;;23.17;12.55;;;;;;;4.83;47.99;100596.22;5033148;28;20041;-66
2020/12/09 07:01:09;;;;;;;20.33;11.15;;;;;;;4.80;48.19;100600.00;5031184;28;20077;-66
2020/12/09 07:03:56;;;;;;;21.52;11.32;;;;;;;4.81;48.17;100601.75;5033217;28;20057;-66
2020/12/09 07:06:43;;;;;;;23.27;12.48;;;;;;;4.82;48.16;100598.06;5033286;28;20061;-66
2020/12/09 07:09:34;;;;;;;23.25;12.57;;;;;;;4.85;48.04;100597.00;5020136;28;20119;-66
2020/12/09 07:12:21;;;;;;;22.30;12.50;;;;;;;4.83;48.13;100604.34;5033608;28;20049;-66
2020/12/09 07:15:08;;;;;;;23.42;12.77;;;;;;;4.83;48.18;100604.34;5033427;28;20424;-67
2020/12/09 07:17:56;;;;;;;21.52;11.90;;;;;;;4.84;48.09;100611.50;5033823;28;20496;-66
2020/12/09 07:20:46;;;;;;;21.52;12.02;;;;;;;4.84;47.95;100603.38;5032439;28;20396;-66
2020/12/09 07:23:34;;;;;;;20.02;12.25;;;;;;;4.84;48.11;100611.50;5033452;28;20053;-66
2020/12/09 07:26:22;;;;;;;19.75;11.38;;;;;;;4.86;48.07;100614.97;5033652;28;20095;-66
2020/12/09 07:29:09;;;;;;;19.90;11.48;;;;;;;4.84;48.15;100616.94;5032713;28;20400;-66
2020/12/09 07:31:59;;;;;;;21.75;11.35;;;;;;;4.84;48.03;100608.81;5031429;28;20125;-66
2020/12/09 07:34:51;;;;;;;20.15;11.55;;;;;;;4.85;47.83;100618.69;5033068;28;20056;-66
2020/12/09 07:37:40;;;;;;;20.13;11.25;;;;;;;4.83;47.74;100607.94;5033461;28;20401;-66
2020/12/09 07:40:28;;;;;;;19.35;10.80;;;;;;;4.82;47.92;100611.63;5025658;28;20088;-66
2020/12/09 07:43:16;;;;;;;22.42;12.70;;;;;;;4.83;47.99;100615.19;5031735;28;20041;-67
2020/12/09 07:46:05;;;;;;;22.90;12.45;;;;;;;4.81;47.96;100615.28;5030559;28;20061;-66
2020/12/09 07:48:52;;;;;;;21.52;11.38;;;;;;;4.81;47.74;100623.41;5031924;28;20049;-66
2020/12/09 07:51:39;;;;;;;21.38;11.55;;;;;;;4.80;47.99;100615.38;5031971;28;20496;-66
2020/12/09 07:54:27;;;;;;;20.02;10.30;;;;;;;4.81;48.06;100617.13;5032915;28;20045;-66
2020/12/09 07:57:14;;;;;;;17.52;10.25;;;;;;;4.81;48.15;100617.13;5032446;28;20041;-66
2020/12/09 08:00:06;;;;;;;20.25;11.02;;;;;;;4.83;47.95;100615.19;5031831;28;20050;-66
2020/12/09 08:02:58;;;;;;;19.45;11.05;;;;;;;4.80;47.96;100602.72;5031860;28;20049;-66
2020/12/09 08:05:27;;;;;;;22.27;11.48;;;;;;;4.82;47.90;100597.19;5030841;28;20040;-66
2020/12/09 08:07:57;;;;;;;22.85;11.75;;;;;;;4.83;48.07;100597.09;5032296;28;20510;-66
2020/12/09 08:10:30;;;;;;;18.52;11.18;;;;;;;4.83;47.74;100597.09;5014739;28;20052;-67
2020/12/09 08:13:21;;;;;;;20.67;11.25;;;;;;;4.82;47.52;100595.34;5024870;28;20054;-66
2020/12/09 08:16:05;;;;;;;18.40;10.88;;;;;;;4.82;47.73;100591.78;5014475;28;20136;-66
2020/12/09 08:19:05;;;;;;;17.77;10.88;;;;;;;4.82;47.51;100594.47;5020949;28;20144;-67
2020/12/09 08:22:04;;;;;;;19.58;10.90;;;;;;;4.80;47.46;100591.88;5028644;28;20051;-67
2020/12/09 08:25:06;;;;;;;20.02;11.73;;;;;;;4.79;47.35;100598.25;5021455;28;20058;-67
2020/12/09 08:27:53;;;;;;;19.55;10.60;;;;;;;4.74;47.58;100584.16;5010781;28;20123;-67
2020/12/09 08:30:41;;;;;;;18.60;12.13;;;;;;;4.74;47.64;100591.41;5021761;28;20048;-67
2020/12/09 08:33:30;;;;;;;21.05;12.55;;;;;;;4.73;47.18;100597.78;5020198;28;20077;-67
2020/12/09 08:36:19;;;;;;;20.10;11.65;;;;;;;4.70;47.50;100596.16;5024229;28;20045;-66
2020/12/09 08:39:06;;;;;;;17.75;10.73;;;;;;;4.68;47.32;100606.25;5025010;28;20041;-67
2020/12/09 08:41:54;;;;;;;19.30;11.15;;;;;;;4.67;47.44;100625.31;5029730;28;20050;-66
2020/12/09 08:44:41;;;;;;;21.50;11.60;;;;;;;4.66;47.48;100610.00;5029007;28;20053;-67
2020/12/09 08:47:29;;;;;;;20.40;11.23;;;;;;;4.64;47.71;100623.66;5031313;28;20572;-67
2020/12/09 08:50:18;;;;;;;21.35;11.73;;;;;;;4.63;47.48;100621.91;5039108;28;20053;-67
2020/12/09 08:53:05;;;;;;;18.17;10.70;;;;;;;4.63;47.74;100623.75;5041273;28;20057;-67
2020/12/09 08:55:53;;;;;;;18.73;10.77;;;;;;;4.62;47.56;100624.72;5031672;28;20052;-67
2020/12/09 08:58:40;;;;;;;20.05;12.25;;;;;;;4.61;47.82;100629.25;5030713;28;20497;-67
2020/12/09 09:01:27;;;;;;;19.48;11.45;;;;;;;4.61;47.86;100637.38;5014804;28;20045;-67
2020/12/09 09:04:16;;;;;;;20.00;11.25;;;;;;;4.61;47.75;100634.69;5024217;28;20057;-67
2020/12/09 09:07:05;;;;;;;21.90;12.40;;;;;;;4.63;47.85;100634.59;5035349;28;20084;-67
2020/12/09 09:09:52;;;;;;;20.70;11.85;;;;;;;4.62;47.89;100643.69;5031874;28;20049;-66
2020/12/09 09:12:40;;;;;;;21.83;13.20;;;;;;;4.63;47.80;100643.59;5034576;28;20041;-66
2020/12/09 09:15:28;;;;;;;19.48;11.35;;;;;;;4.63;47.69;100649.00;5015712;28;20053;-66
2020/12/09 09:18:15;;;;;;;16.88;10.55;;;;;;;4.64;47.95;100656.16;5021604;28;20058;-66
2020/12/09 09:21:03;;;;;;;19.20;11.90;;;;;;;4.65;48.06;100649.78;5025946;28;20437;-67
2020/12/09 09:23:51;;;;;;;20.58;12.15;;;;;;;4.67;47.99;100653.28;5027728;28;20485;-66
2020/12/09 09:26:39;;;;;;;20.77;11.20;;;;;;;4.66;47.85;100654.25;5034199;28;20107;-66
2020/12/09 09:29:28;;;;;;;19.45;11.57;;;;;;;4.67;47.82;100658.69;5027762;28;20041;-66
2020/12/09 09:32:17;;;;;;;20.27;11.38;;;;;;;4.68;47.64;100660.44;5021678;28;20401;-66
2020/12/09 09:35:04;;;;;;;18.52;11.10;;;;;;;4.68;47.84;100662.28;5034717;28;20137;-66
2020/12/09 09:37:51;;;;;;;15.18;9.35;;;;;;;4.69;47.84;100664.84;5033666;28;20045;-66
2020/12/09 09:40:40;;;;;;;18.73;10.98;;;;;;;4.72;47.55;100664.66;5031458;28;20052;-66
2020/12/09 09:43:28;;;;;;;21.85;11.82;;;;;;;4.71;47.81;100665.63;5018775;28;20045;-66
2020/12/09 09:46:15;;;;;;;20.83;11.65;;;;;;;4.73;47.80;100673.66;5034586;28;20136;-66
2020/12/09 09:49:02;;;;;;;19.15;11.20;;;;;;;4.74;47.69;100678.13;5033632;28;20137;-66
2020/12/09 09:51:51;;;;;;;19.33;11.10;;;;;;;4.75;48.01;100683.44;5034644;28;20056;-65
2020/12/09 09:54:39;;;;;;;19.45;12.00;;;;;;;4.77;47.89;100684.19;5034281;28;20438;-65
2020/12/09 09:57:28;;;;;;;21.02;11.73;;;;;;;4.79;47.92;100690.41;5034671;28;20053;-66
2020/12/09 09:59:59;;;;;;;22.45;12.18;;;;;;;4.79;47.67;100684.97;5032560;28;20030;-65
2020/12/09 10:02:29;;;;;;;21.85;12.05;;;;;;;4.84;48.00;100687.41;5033497;28;20033;-66
2020/12/09 10:05:03;;;;;;;19.88;10.68;;;;;;;4.82;47.56;100675.78;5020245;28;20052;-66
2020/12/09 10:07:51;;;;;;;17.27;10.93;;;;;;;4.85;47.64;100686.44;5031506;28;20045;-66
2020/12/09 10:10:40;;;;;;;18.55;10.55;;;;;;;4.86;47.62;100680.00;5011256;28;20061;-66
2020/12/09 10:13:28;;;;;;;18.17;10.43;;;;;;;4.88;47.48;100679.91;5011563;28;20049;-66
2020/12/09 10:16:23;;;;;;;19.45;10.82;;;;;;;4.90;47.40;100683.41;5013198;28;20057;-66
2020/12/09 10:19:11;;;;;;;19.48;11.27;;;;;;;4.88;47.70;100686.22;5018244;28;20053;-66
2020/12/09 10:22:00;;;;;;;19.00;11.05;;;;;;;4.91;47.45;100693.28;5013917;28;20406;-66
2020/12/09 10:24:48;;;;;;;20.90;11.07;;;;;;;4.91;47.39;100690.56;5022951;28;20049;-66
2020/12/09 10:27:36;;;;;;;23.40;12.98;;;;;;;4.92;47.31;100670.63;5033835;28;20067;-66
2020/12/09 10:30:24;;;;;;;21.50;12.32;;;;;;;4.94;47.30;100666.81;5033210;28;20072;-66
2020/12/09 10:33:12;;;;;;;28.05;14.77;;;;;;;4.94;47.41;100668.66;5033991;28;20163;-66
2020/12/09 10:35:59;;;;;;;30.63;15.10;;;;;;;4.95;47.51;100662.28;5021268;28;20046;-66
2020/12/09 10:38:47;;;;;;;32.47;15.75;;;;;;;4.95;47.47;100659.56;5013180;28;20052;-66
2020/12/09 10:41:34;;;;;;;33.25;15.52;;;;;;;4.97;47.54;100647.66;5013607;28;20133;-66
2020/12/09 10:44:22;;;;;;;29.02;14.77;;;;;;;4.97;47.55;100644.94;5016797;28;20354;-66
2020/12/09 10:47:11;;;;;;;27.33;14.70;;;;;;;4.99;47.48;100636.72;5033551;28;20080;-66
2020/12/09 10:49:58;;;;;;;29.73;15.10;;;;;;;4.99;47.48;100632.16;5010867;28;20126;-66
2020/12/09 10:52:45;;;;;;;26.05;14.77;;;;;;;5.01;47.46;100627.53;5013426;28;20136;-65
2020/12/09 10:55:35;;;;;;;30.02;14.07;;;;;;;5.03;47.80;100635.53;5030462;28;20049;-65
2020/12/09 10:58:23;;;;;;;26.70;13.23;;;;;;;5.06;47.75;100643.47;5017852;28;20054;-66
2020/12/09 11:01:10;;;;;;;29.30;14.63;;;;;;;5.08;47.72;100646.97;5029837;28;20535;-66
2020/12/09 11:03:59;;;;;;;27.13;14.23;;;;;;;5.11;47.94;100636.75;5033224;28;20053;-67
2020/12/09 11:06:46;;;;;;;23.85;13.43;;;;;;;5.15;47.69;100629.31;5032974;28;20068;-66
2020/12/09 11:09:34;;;;;;;22.02;12.05;;;;;;;5.18;47.79;100642.66;5032258;28;20053;-66
2020/12/09 11:12:22;;;;;;;26.05;14.35;;;;;;;5.21;47.73;100640.59;5031828;28;20131;-67
2020/12/09 11:15:10;;;;;;;24.48;12.30;;;;;;;5.25;47.89;100640.41;5032058;28;20049;-67
2020/12/09 11:17:57;;;;;;;21.02;11.38;;;;;;;5.28;47.77;100635.63;5032904;28;20045;-67
2020/12/09 11:20:45;;;;;;;26.08;13.52;;;;;;;5.34;47.80;100642.50;5023419;28;20046;-66
2020/12/09 11:23:33;;;;;;;24.25;13.75;;;;;;;5.36;47.67;100644.09;5006970;28;20536;-67
2020/12/09 11:26:21;;;;;;;25.63;13.70;;;;;;;5.41;47.39;100649.22;5032011;28;20522;-67
2020/12/09 11:29:08;;;;;;;24.02;13.63;;;;;;;5.43;47.42;100641.88;5031919;28;20077;-67
2020/12/09 11:31:56;;;;;;;24.15;13.52;;;;;;;5.46;47.87;100636.22;5030449;28;20053;-67
2020/12/09 11:34:44;;;;;;;26.00;13.98;;;;;;;5.48;47.69;100634.31;5032306;28;20445;-67
2020/12/09 11:37:33;;;;;;;22.60;12.30;;;;;;;5.53;47.30;100638.44;5012382;28;20080;-67
2020/12/09 11:40:25;;;;;;;23.65;13.50;;;;;;;5.55;46.86;100641.03;5015409;28;20069;-67
2020/12/09 11:43:12;;;;;;;24.95;13.20;;;;;;;5.56;47.06;100642.78;5032295;28;20455;-67
2020/12/09 11:46:00;;;;;;;19.98;11.60;;;;;;;5.58;47.21;100638.13;5021505;28;20064;-67
2020/12/09 11:48:48;;;;;;;21.80;12.70;;;;;;;5.59;46.82;100635.28;5031663;28;20041;-67
2020/12/09 11:51:36;;;;;;;26.65;13.98;;;;;;;5.62;46.93;100642.34;5020169;28;20053;-67
2020/12/09 11:54:24;;;;;;;23.25;12.13;;;;;;;5.64;46.68;100639.53;5017230;28;20053;-67
2020/12/09 11:57:11;;;;;;;24.10;13.43;;;;;;;5.65;46.86;100635.84;5017307;28;20045;-67
2020/12/09 11:59:59;;;;;;;22.25;12.55;;;;;;;5.66;46.91;100635.75;5031444;28;20107;-66
2020/12/09 12:02:47;;;;;;;25.05;13.55;;;;;;;5.69;47.07;100632.81;5011996;28;20050;-66
2020/12/09 12:05:36;;;;;;;21.17;12.50;;;;;;;5.71;46.90;100639.00;5014196;28;20077;-67
2020/12/09 12:08:23;;;;;;;22.40;12.55;;;;;;;5.72;46.94;100635.31;5032013;28;20045;-67
2020/12/09 12:11:15;;;;;;;22.80;12.85;;;;;;;5.76;46.53;100623.25;5040038;28;20049;-67
2020/12/09 12:14:03;;;;;;;21.80;12.18;;;;;;;5.76;46.79;100631.41;5030848;28;20053;-68
2020/12/09 12:16:50;;;;;;;21.58;12.27;;;;;;;5.80;47.20;100623.94;5031974;28;20095;-67